AAL1278 KDFW-KLGA
Flight info
| Callsign | AAL1278 |
|---|---|
| Flight time | 2h 56m |
| Altitude | 33000 |
| Route | FORCK3 FORCK ELD IZAAC Q30 VLKNN THRSR TWOUP Q22 BURGG Q60 HURTS PROUD2 |
| Aircraft | A321/M-SDE3FGHIRWY/LB1 |
Departure
| Time | 2026-05-05 17:08 |
|---|---|
| Airport | Dallas Fort Worth International Airport (KDFW) |
Arrival
| Time | 2026-05-05 20:04 |
|---|---|
| Airport | LaGuardia Airport (KLGA) |
| Time | Latitude | Longitude | Altitude | Speed | Heading |
|---|---|---|---|---|---|
| 2026-05-05 16:40 | 32.90580 | -97.03521 | 587 ft | 0 kts | 256° |
| 2026-05-05 16:56 | 32.90584 | -97.03495 | 587 ft | 4 kts | 259° |
| 2026-05-05 16:56 | 32.90589 | -97.03471 | 587 ft | 4 kts | 255° |
| 2026-05-05 16:57 | 32.90594 | -97.03440 | 587 ft | 4 kts | 278° |
| 2026-05-05 16:57 | 32.90587 | -97.03417 | 586 ft | 4 kts | 297° |
| 2026-05-05 16:57 | 32.90581 | -97.03401 | 586 ft | 0 kts | 297° |
| 2026-05-05 17:01 | 32.90581 | -97.03403 | 586 ft | 1 kts | 297° |
| 2026-05-05 17:01 | 32.90591 | -97.03413 | 586 ft | 3 kts | 329° |
| 2026-05-05 17:01 | 32.90609 | -97.03406 | 586 ft | 3 kts | 40° |
| 2026-05-05 17:01 | 32.90610 | -97.03381 | 586 ft | 4 kts | 96° |
| 2026-05-05 17:02 | 32.90605 | -97.03340 | 586 ft | 6 kts | 96° |
| 2026-05-05 17:02 | 32.90604 | -97.03275 | 581 ft | 10 kts | 90° |
| 2026-05-05 17:02 | 32.90607 | -97.03205 | 574 ft | 9 kts | 70° |
| 2026-05-05 17:02 | 32.90666 | -97.03188 | 578 ft | 9 kts | 0° |
| 2026-05-05 17:03 | 32.90726 | -97.03188 | 577 ft | 8 kts | 0° |
| 2026-05-05 17:03 | 32.90781 | -97.03188 | 580 ft | 8 kts | 0° |
| 2026-05-05 17:03 | 32.90845 | -97.03188 | 579 ft | 10 kts | 0° |
| 2026-05-05 17:03 | 32.90928 | -97.03187 | 584 ft | 13 kts | 0° |
| 2026-05-05 17:04 | 32.91026 | -97.03187 | 581 ft | 15 kts | 0° |
| 2026-05-05 17:04 | 32.91128 | -97.03186 | 585 ft | 14 kts | 0° |
| 2026-05-05 17:04 | 32.91223 | -97.03185 | 580 ft | 13 kts | 0° |
| 2026-05-05 17:04 | 32.91313 | -97.03185 | 580 ft | 13 kts | 0° |
| 2026-05-05 17:05 | 32.91395 | -97.03184 | 581 ft | 7 kts | 5° |
| 2026-05-05 17:05 | 32.91412 | -97.03133 | 577 ft | 7 kts | 90° |
| 2026-05-05 17:05 | 32.91412 | -97.03111 | 578 ft | 0 kts | 90° |
| 2026-05-05 17:06 | 32.91412 | -97.03105 | 578 ft | 3 kts | 90° |
| 2026-05-05 17:06 | 32.91411 | -97.03058 | 578 ft | 8 kts | 90° |
| 2026-05-05 17:07 | 32.91408 | -97.03001 | 577 ft | 5 kts | 110° |
| 2026-05-05 17:07 | 32.91380 | -97.02991 | 576 ft | 2 kts | 178° |
| 2026-05-05 17:07 | 32.91379 | -97.02991 | 576 ft | 0 kts | 178° |
| 2026-05-05 17:07 | 32.91330 | -97.02989 | 578 ft | 29 kts | 179° |
| 2026-05-05 17:08 | 32.90903 | -97.02992 | 575 ft | 92 kts | 180° |
| 2026-05-05 17:08 | 32.90077 | -97.02997 | 578 ft | 144 kts | 180° |
| 2026-05-05 17:08 | 32.88940 | -97.03000 | 696 ft | 174 kts | 180° |
| 2026-05-05 17:08 | 32.87761 | -97.02992 | 1433 ft | 169 kts | 184° |
| 2026-05-05 17:09 | 32.86565 | -97.02985 | 2005 ft | 172 kts | 185° |
| 2026-05-05 17:09 | 32.85359 | -97.02979 | 2449 ft | 177 kts | 187° |
| 2026-05-05 17:09 | 32.84073 | -97.02982 | 2575 ft | 193 kts | 186° |
| 2026-05-05 17:09 | 32.82676 | -97.02989 | 2696 ft | 210 kts | 186° |
| 2026-05-05 17:10 | 32.81134 | -97.02998 | 2805 ft | 229 kts | 187° |
| 2026-05-05 17:10 | 32.79457 | -97.03017 | 3015 ft | 251 kts | 188° |
| 2026-05-05 17:10 | 32.77673 | -97.03035 | 3419 ft | 261 kts | 185° |
| 2026-05-05 17:10 | 32.75863 | -97.03029 | 3936 ft | 265 kts | 185° |
| 2026-05-05 17:11 | 32.74003 | -97.03009 | 4471 ft | 271 kts | 181° |
| 2026-05-05 17:11 | 32.72149 | -97.02420 | 4944 ft | 285 kts | 156° |
| 2026-05-05 17:11 | 32.70624 | -97.00864 | 5441 ft | 298 kts | 128° |
| 2026-05-05 17:11 | 32.69793 | -96.98588 | 5929 ft | 306 kts | 106° |
| 2026-05-05 17:12 | 32.69268 | -96.96096 | 6435 ft | 308 kts | 106° |
| 2026-05-05 17:12 | 32.68911 | -96.93582 | 6918 ft | 311 kts | 93° |
| 2026-05-05 17:12 | 32.69008 | -96.91005 | 7405 ft | 314 kts | 85° |
| 2026-05-05 17:12 | 32.69203 | -96.88408 | 7921 ft | 317 kts | 85° |
| 2026-05-05 17:13 | 32.69384 | -96.85796 | 8477 ft | 318 kts | 86° |
| 2026-05-05 17:13 | 32.69557 | -96.83166 | 8971 ft | 322 kts | 86° |
| 2026-05-05 17:13 | 32.69750 | -96.80506 | 9474 ft | 325 kts | 81° |
| 2026-05-05 17:13 | 32.70245 | -96.77869 | 9933 ft | 329 kts | 75° |
| 2026-05-05 17:14 | 32.70814 | -96.75222 | 10410 ft | 332 kts | 75° |
| 2026-05-05 17:14 | 32.71395 | -96.72523 | 10638 ft | 345 kts | 75° |
| 2026-05-05 17:14 | 32.71999 | -96.69697 | 10756 ft | 360 kts | 75° |
| 2026-05-05 17:14 | 32.72624 | -96.66757 | 10906 ft | 375 kts | 75° |
| 2026-05-05 17:15 | 32.73278 | -96.63690 | 11029 ft | 391 kts | 75° |
| 2026-05-05 17:15 | 32.73958 | -96.60502 | 11151 ft | 405 kts | 75° |
| 2026-05-05 17:15 | 32.74663 | -96.57201 | 11267 ft | 419 kts | 75° |
| 2026-05-05 17:15 | 32.75387 | -96.53804 | 11573 ft | 428 kts | 75° |
| 2026-05-05 17:16 | 32.76109 | -96.50398 | 11958 ft | 432 kts | 75° |
| 2026-05-05 17:16 | 32.76843 | -96.46919 | 12404 ft | 435 kts | 75° |
| 2026-05-05 17:16 | 32.77579 | -96.43417 | 12886 ft | 438 kts | 75° |
| 2026-05-05 17:16 | 32.78317 | -96.39898 | 13348 ft | 441 kts | 75° |
| 2026-05-05 17:17 | 32.79066 | -96.36343 | 13779 ft | 445 kts | 74° |
| 2026-05-05 17:17 | 32.79755 | -96.32747 | 14188 ft | 449 kts | 80° |
| 2026-05-05 17:17 | 32.80154 | -96.29051 | 14603 ft | 452 kts | 82° |
| 2026-05-05 17:17 | 32.80539 | -96.25319 | 15022 ft | 456 kts | 83° |
| 2026-05-05 17:18 | 32.80929 | -96.21562 | 15449 ft | 459 kts | 83° |
| 2026-05-05 17:18 | 32.81322 | -96.17786 | 15882 ft | 462 kts | 83° |
| 2026-05-05 17:18 | 32.81714 | -96.14038 | 16808 ft | 449 kts | 83° |
| 2026-05-05 17:18 | 32.82094 | -96.10383 | 17607 ft | 443 kts | 83° |
| 2026-05-05 17:19 | 32.82467 | -96.06767 | 18252 ft | 439 kts | 82° |
| 2026-05-05 17:19 | 32.82837 | -96.03166 | 18686 ft | 440 kts | 82° |
| 2026-05-05 17:19 | 32.83208 | -95.99543 | 19030 ft | 443 kts | 82° |
| 2026-05-05 17:19 | 32.83579 | -95.95891 | 19353 ft | 447 kts | 82° |
| 2026-05-05 17:20 | 32.83953 | -95.92212 | 19684 ft | 450 kts | 82° |
| 2026-05-05 17:20 | 32.84334 | -95.88486 | 19904 ft | 458 kts | 82° |
| 2026-05-05 17:20 | 32.84723 | -95.84678 | 20027 ft | 468 kts | 82° |
| 2026-05-05 17:20 | 32.85112 | -95.80848 | 20153 ft | 477 kts | 82° |
| 2026-05-05 17:21 | 32.85511 | -95.76888 | 20282 ft | 487 kts | 82° |
| 2026-05-05 17:21 | 32.85916 | -95.72848 | 20404 ft | 496 kts | 82° |
| 2026-05-05 17:21 | 32.86327 | -95.68738 | 20526 ft | 504 kts | 82° |
| 2026-05-05 17:22 | 32.87156 | -95.60361 | 20968 ft | 515 kts | 82° |
| 2026-05-05 17:22 | 32.87576 | -95.56117 | 21242 ft | 518 kts | 81° |
| 2026-05-05 17:22 | 32.87999 | -95.51852 | 21515 ft | 521 kts | 82° |
| 2026-05-05 17:22 | 32.88419 | -95.47557 | 21775 ft | 524 kts | 81° |
| 2026-05-05 17:23 | 32.88840 | -95.43233 | 22042 ft | 528 kts | 81° |
| 2026-05-05 17:23 | 32.89265 | -95.38884 | 22307 ft | 531 kts | 81° |
| 2026-05-05 17:23 | 32.89691 | -95.34511 | 22566 ft | 534 kts | 81° |
| 2026-05-05 17:23 | 32.90119 | -95.30117 | 22851 ft | 536 kts | 81° |
| 2026-05-05 17:24 | 32.90548 | -95.25697 | 23122 ft | 539 kts | 81° |
| 2026-05-05 17:24 | 32.90975 | -95.21256 | 23380 ft | 542 kts | 81° |
| 2026-05-05 17:24 | 32.91401 | -95.16788 | 23602 ft | 544 kts | 81° |
| 2026-05-05 17:24 | 32.91828 | -95.12300 | 23834 ft | 546 kts | 81° |
| 2026-05-05 17:25 | 32.92255 | -95.07797 | 24069 ft | 548 kts | 81° |
| 2026-05-05 17:25 | 32.92538 | -95.04811 | 24223 ft | 549 kts | 81° |
| 2026-05-05 17:25 | 32.93109 | -94.98754 | 24528 ft | 552 kts | 81° |
| 2026-05-05 17:25 | 32.93540 | -94.94195 | 24756 ft | 553 kts | 81° |
| 2026-05-05 17:26 | 32.93971 | -94.89636 | 25001 ft | 554 kts | 81° |
| 2026-05-05 17:26 | 32.94399 | -94.85069 | 25228 ft | 556 kts | 81° |
| 2026-05-05 17:26 | 32.94825 | -94.80491 | 25451 ft | 558 kts | 81° |
| 2026-05-05 17:26 | 32.95246 | -94.75955 | 25670 ft | 559 kts | 81° |
| 2026-05-05 17:27 | 32.95674 | -94.71287 | 25904 ft | 561 kts | 81° |
| 2026-05-05 17:27 | 32.96096 | -94.66659 | 26125 ft | 563 kts | 81° |
| 2026-05-05 17:27 | 32.96511 | -94.62072 | 26343 ft | 564 kts | 81° |
| 2026-05-05 17:27 | 32.96928 | -94.57430 | 26635 ft | 564 kts | 82° |
| 2026-05-05 17:28 | 32.97343 | -94.52797 | 27010 ft | 562 kts | 81° |
| 2026-05-05 17:28 | 32.97762 | -94.48172 | 27343 ft | 560 kts | 81° |
| 2026-05-05 17:28 | 32.98182 | -94.43562 | 27651 ft | 560 kts | 81° |
| 2026-05-05 17:28 | 32.98600 | -94.38945 | 27962 ft | 560 kts | 81° |
| 2026-05-05 17:29 | 32.99011 | -94.34338 | 28261 ft | 560 kts | 81° |
| 2026-05-05 17:29 | 32.99418 | -94.29729 | 28552 ft | 559 kts | 81° |
| 2026-05-05 17:29 | 32.99975 | -94.25154 | 28840 ft | 556 kts | 74° |
| 2026-05-05 17:29 | 33.00768 | -94.20649 | 29121 ft | 556 kts | 74° |
| 2026-05-05 17:30 | 33.01562 | -94.16148 | 29419 ft | 555 kts | 74° |
| 2026-05-05 17:30 | 33.02358 | -94.11641 | 29736 ft | 554 kts | 74° |
| 2026-05-05 17:30 | 33.03148 | -94.07141 | 29988 ft | 554 kts | 74° |
| 2026-05-05 17:30 | 33.03936 | -94.02648 | 30205 ft | 554 kts | 74° |
| 2026-05-05 17:31 | 33.04721 | -93.98147 | 30418 ft | 554 kts | 74° |
| 2026-05-05 17:31 | 33.05503 | -93.93646 | 30642 ft | 554 kts | 74° |
| 2026-05-05 17:31 | 33.06281 | -93.89148 | 30856 ft | 555 kts | 74° |
| 2026-05-05 17:31 | 33.07058 | -93.84643 | 31082 ft | 554 kts | 74° |
| 2026-05-05 17:32 | 33.07837 | -93.80142 | 31314 ft | 554 kts | 73° |
| 2026-05-05 17:32 | 33.08616 | -93.75642 | 31546 ft | 554 kts | 73° |
| 2026-05-05 17:32 | 33.09393 | -93.71139 | 31769 ft | 554 kts | 73° |
| 2026-05-05 17:32 | 33.10168 | -93.66643 | 31983 ft | 554 kts | 73° |
| 2026-05-05 17:33 | 33.10928 | -93.62198 | 32191 ft | 554 kts | 73° |
| 2026-05-05 17:33 | 33.11698 | -93.57690 | 32361 ft | 555 kts | 73° |
| 2026-05-05 17:33 | 33.12465 | -93.53175 | 32555 ft | 556 kts | 73° |
| 2026-05-05 17:33 | 33.13231 | -93.48657 | 32754 ft | 556 kts | 73° |
| 2026-05-05 17:34 | 33.13749 | -93.45599 | 32815 ft | 557 kts | 73° |
| 2026-05-05 17:34 | 33.15291 | -93.36531 | 32840 ft | 558 kts | 73° |
| 2026-05-05 17:35 | 33.16822 | -93.27499 | 32840 ft | 558 kts | 73° |
| 2026-05-05 17:35 | 33.18343 | -93.18420 | 32841 ft | 558 kts | 74° |
| 2026-05-05 17:36 | 33.19856 | -93.09322 | 32841 ft | 558 kts | 74° |
| 2026-05-05 17:36 | 33.21370 | -93.00224 | 32854 ft | 558 kts | 73° |
| 2026-05-05 17:37 | 33.22873 | -92.91134 | 32858 ft | 558 kts | 73° |
| 2026-05-05 17:37 | 33.24369 | -92.82033 | 32864 ft | 558 kts | 73° |
| 2026-05-05 17:38 | 33.25826 | -92.72910 | 32886 ft | 559 kts | 76° |
| 2026-05-05 17:38 | 33.26864 | -92.63677 | 32883 ft | 562 kts | 80° |
| 2026-05-05 17:39 | 33.27559 | -92.54363 | 32888 ft | 563 kts | 81° |
| 2026-05-05 17:39 | 33.28283 | -92.45056 | 32886 ft | 562 kts | 79° |
| 2026-05-05 17:40 | 33.29149 | -92.35790 | 32889 ft | 561 kts | 79° |
| 2026-05-05 17:40 | 33.30050 | -92.26531 | 32904 ft | 561 kts | 79° |
| 2026-05-05 17:41 | 33.30898 | -92.17257 | 32896 ft | 561 kts | 79° |
| 2026-05-05 17:41 | 33.31704 | -92.08041 | 32897 ft | 561 kts | 79° |
| 2026-05-05 17:42 | 33.32513 | -91.98770 | 32896 ft | 560 kts | 79° |
| 2026-05-05 17:42 | 33.33322 | -91.89498 | 32906 ft | 560 kts | 79° |
| 2026-05-05 17:43 | 33.34131 | -91.80226 | 32912 ft | 559 kts | 79° |
| 2026-05-05 17:43 | 33.34930 | -91.70983 | 32909 ft | 558 kts | 79° |
| 2026-05-05 17:44 | 33.35725 | -91.61746 | 32908 ft | 558 kts | 79° |
| 2026-05-05 17:44 | 33.36504 | -91.52513 | 32911 ft | 558 kts | 79° |
| 2026-05-05 17:45 | 33.37272 | -91.43283 | 32915 ft | 557 kts | 79° |
| 2026-05-05 17:45 | 33.38040 | -91.34067 | 32923 ft | 556 kts | 79° |
| 2026-05-05 17:46 | 33.38797 | -91.24906 | 32923 ft | 556 kts | 79° |
| 2026-05-05 17:46 | 33.39561 | -91.15690 | 32929 ft | 556 kts | 79° |
| 2026-05-05 17:47 | 33.40308 | -91.06483 | 32943 ft | 556 kts | 79° |
| 2026-05-05 17:47 | 33.41037 | -90.97275 | 32939 ft | 555 kts | 79° |
| 2026-05-05 17:48 | 33.41762 | -90.88071 | 32937 ft | 555 kts | 79° |
| 2026-05-05 17:48 | 33.42494 | -90.78875 | 32927 ft | 555 kts | 79° |
| 2026-05-05 17:49 | 33.43212 | -90.69680 | 32936 ft | 554 kts | 79° |
| 2026-05-05 17:49 | 33.43921 | -90.60496 | 32937 ft | 554 kts | 79° |
| 2026-05-05 17:50 | 33.44622 | -90.51314 | 32938 ft | 553 kts | 79° |
| 2026-05-05 17:50 | 33.45311 | -90.42141 | 32945 ft | 553 kts | 79° |
| 2026-05-05 17:51 | 33.45994 | -90.32965 | 32959 ft | 552 kts | 79° |
| 2026-05-05 17:51 | 33.46597 | -90.23797 | 32973 ft | 553 kts | 82° |
| 2026-05-05 17:52 | 33.46806 | -90.14556 | 32979 ft | 555 kts | 85° |
| 2026-05-05 17:52 | 33.46826 | -90.05310 | 32977 ft | 555 kts | 85° |
| 2026-05-05 17:53 | 33.46907 | -89.96069 | 32971 ft | 554 kts | 84° |
| 2026-05-05 17:53 | 33.47073 | -89.86847 | 32964 ft | 553 kts | 83° |
| 2026-05-05 17:54 | 33.47262 | -89.77631 | 32963 ft | 553 kts | 83° |
| 2026-05-05 17:54 | 33.47416 | -89.68427 | 32973 ft | 553 kts | 84° |
| 2026-05-05 17:55 | 33.47530 | -89.59268 | 32968 ft | 553 kts | 84° |
| 2026-05-05 17:55 | 33.47645 | -89.50063 | 32976 ft | 553 kts | 84° |
| 2026-05-05 17:56 | 33.47761 | -89.40868 | 32964 ft | 552 kts | 84° |
| 2026-05-05 17:56 | 33.47877 | -89.31666 | 32976 ft | 553 kts | 84° |
| 2026-05-05 17:57 | 33.47982 | -89.22460 | 32991 ft | 553 kts | 84° |
| 2026-05-05 17:57 | 33.48078 | -89.13256 | 32995 ft | 552 kts | 84° |
| 2026-05-05 17:58 | 33.48162 | -89.04059 | 32999 ft | 552 kts | 84° |
| 2026-05-05 17:58 | 33.48245 | -88.94870 | 33000 ft | 552 kts | 84° |
| 2026-05-05 17:59 | 33.48327 | -88.85682 | 33000 ft | 552 kts | 84° |
| 2026-05-05 17:59 | 33.48399 | -88.76495 | 33006 ft | 551 kts | 84° |
| 2026-05-05 18:00 | 33.48465 | -88.67314 | 33015 ft | 551 kts | 84° |
| 2026-05-05 18:00 | 33.48517 | -88.58124 | 33039 ft | 551 kts | 84° |
| 2026-05-05 18:01 | 33.48824 | -88.48992 | 33039 ft | 543 kts | 75° |
| 2026-05-05 18:01 | 33.49911 | -88.40048 | 33000 ft | 542 kts | 75° |
| 2026-05-05 18:02 | 33.50995 | -88.31096 | 32993 ft | 542 kts | 75° |
| 2026-05-05 18:02 | 33.52063 | -88.22153 | 32985 ft | 542 kts | 75° |
| 2026-05-05 18:03 | 33.53120 | -88.13212 | 32978 ft | 542 kts | 75° |
| 2026-05-05 18:03 | 33.54161 | -88.04309 | 32980 ft | 542 kts | 75° |
| 2026-05-05 18:04 | 33.55204 | -87.95361 | 32975 ft | 542 kts | 75° |
| 2026-05-05 18:04 | 33.56250 | -87.86414 | 32975 ft | 542 kts | 75° |
| 2026-05-05 18:05 | 33.57287 | -87.77466 | 32975 ft | 542 kts | 75° |
| 2026-05-05 18:05 | 33.58311 | -87.68509 | 32986 ft | 542 kts | 75° |
| 2026-05-05 18:06 | 33.59326 | -87.59552 | 32979 ft | 542 kts | 75° |
| 2026-05-05 18:06 | 33.60334 | -87.50591 | 32980 ft | 542 kts | 75° |
| 2026-05-05 18:07 | 33.61340 | -87.41626 | 32979 ft | 542 kts | 75° |
| 2026-05-05 18:07 | 33.62349 | -87.32659 | 32985 ft | 542 kts | 75° |
| 2026-05-05 18:08 | 33.63346 | -87.23698 | 32987 ft | 542 kts | 75° |
| 2026-05-05 18:08 | 33.64324 | -87.14735 | 32995 ft | 541 kts | 76° |
| 2026-05-05 18:09 | 33.65302 | -87.05776 | 33052 ft | 541 kts | 76° |
| 2026-05-05 18:09 | 33.66277 | -86.96825 | 33062 ft | 541 kts | 76° |
| 2026-05-05 18:10 | 33.67005 | -86.87826 | 33082 ft | 546 kts | 85° |
| 2026-05-05 18:10 | 33.66928 | -86.78710 | 33091 ft | 545 kts | 85° |
| 2026-05-05 18:11 | 33.66858 | -86.69614 | 33083 ft | 545 kts | 85° |
| 2026-05-05 18:11 | 33.66782 | -86.60524 | 33076 ft | 544 kts | 85° |
| 2026-05-05 18:12 | 33.66694 | -86.51507 | 33080 ft | 543 kts | 86° |
| 2026-05-05 18:12 | 33.66600 | -86.42442 | 33064 ft | 542 kts | 86° |
| 2026-05-05 18:13 | 33.66503 | -86.33397 | 33052 ft | 541 kts | 86° |
| 2026-05-05 18:13 | 33.66403 | -86.24367 | 33087 ft | 541 kts | 86° |
| 2026-05-05 18:14 | 33.66293 | -86.15349 | 33053 ft | 540 kts | 86° |
| 2026-05-05 18:14 | 33.66174 | -86.06327 | 33051 ft | 540 kts | 86° |
| 2026-05-05 18:15 | 33.66050 | -85.97308 | 33050 ft | 540 kts | 86° |
| 2026-05-05 18:15 | 33.65919 | -85.88301 | 33076 ft | 540 kts | 86° |
| 2026-05-05 18:16 | 33.65784 | -85.79296 | 33078 ft | 540 kts | 86° |
| 2026-05-05 18:16 | 33.65666 | -85.71810 | 33073 ft | 539 kts | 86° |
| 2026-05-05 18:17 | 33.65515 | -85.62801 | 33070 ft | 540 kts | 86° |
| 2026-05-05 18:17 | 33.65358 | -85.53800 | 33064 ft | 540 kts | 86° |
| 2026-05-05 18:18 | 33.65199 | -85.44784 | 33058 ft | 540 kts | 86° |
| 2026-05-05 18:18 | 33.65038 | -85.35781 | 33074 ft | 539 kts | 87° |
| 2026-05-05 18:19 | 33.64865 | -85.26786 | 33143 ft | 539 kts | 87° |
| 2026-05-05 18:19 | 33.64678 | -85.17799 | 33143 ft | 539 kts | 87° |
| 2026-05-05 18:20 | 33.64484 | -85.08812 | 33143 ft | 539 kts | 87° |
| 2026-05-05 18:20 | 33.64290 | -84.99831 | 33135 ft | 539 kts | 87° |
| 2026-05-05 18:21 | 33.64092 | -84.90843 | 33118 ft | 539 kts | 87° |
| 2026-05-05 18:21 | 33.63882 | -84.81850 | 33091 ft | 539 kts | 87° |
| 2026-05-05 18:22 | 33.63672 | -84.72855 | 33089 ft | 539 kts | 87° |
| 2026-05-05 18:22 | 33.63450 | -84.63863 | 33106 ft | 539 kts | 87° |
| 2026-05-05 18:23 | 33.63218 | -84.54861 | 33107 ft | 540 kts | 87° |
| 2026-05-05 18:23 | 33.63463 | -84.45924 | 33105 ft | 530 kts | 73° |
| 2026-05-05 18:24 | 33.65568 | -84.37579 | 33103 ft | 511 kts | 56° |
| 2026-05-05 18:24 | 33.68809 | -84.30063 | 33086 ft | 507 kts | 53° |
| 2026-05-05 18:25 | 33.72066 | -84.22553 | 33077 ft | 507 kts | 53° |
| 2026-05-05 18:25 | 33.75317 | -84.15028 | 33098 ft | 507 kts | 53° |
| 2026-05-05 18:26 | 33.78570 | -84.07506 | 33095 ft | 507 kts | 53° |
| 2026-05-05 18:26 | 33.81823 | -83.99986 | 33108 ft | 507 kts | 53° |
| 2026-05-05 18:27 | 33.85058 | -83.92469 | 33092 ft | 505 kts | 53° |
| 2026-05-05 18:27 | 33.88285 | -83.84956 | 33111 ft | 505 kts | 53° |
| 2026-05-05 18:28 | 33.94039 | -83.74677 | 33123 ft | 490 kts | 43° |
| 2026-05-05 18:28 | 33.98111 | -83.68085 | 33402 ft | 490 kts | 43° |
| 2026-05-05 18:29 | 34.00142 | -83.64783 | 33646 ft | 489 kts | 43° |
| 2026-05-05 18:29 | 34.02135 | -83.61533 | 33883 ft | 489 kts | 43° |
| 2026-05-05 18:29 | 34.04155 | -83.58235 | 34091 ft | 489 kts | 43° |
| 2026-05-05 18:29 | 34.06172 | -83.54940 | 34341 ft | 487 kts | 43° |
| 2026-05-05 18:30 | 34.08175 | -83.51663 | 34635 ft | 484 kts | 43° |
| 2026-05-05 18:30 | 34.10167 | -83.48406 | 34905 ft | 481 kts | 43° |
| 2026-05-05 18:30 | 34.12155 | -83.45157 | 35056 ft | 482 kts | 43° |
| 2026-05-05 18:30 | 34.14142 | -83.41907 | 35073 ft | 482 kts | 43° |
| 2026-05-05 18:31 | 34.18114 | -83.35393 | 35066 ft | 481 kts | 43° |
| 2026-05-05 18:31 | 34.22082 | -83.28878 | 35064 ft | 481 kts | 43° |
| 2026-05-05 18:32 | 34.26043 | -83.22364 | 35055 ft | 481 kts | 43° |
| 2026-05-05 18:32 | 34.30000 | -83.15837 | 35082 ft | 481 kts | 43° |
| 2026-05-05 18:33 | 34.33957 | -83.09304 | 35093 ft | 481 kts | 44° |
| 2026-05-05 18:33 | 34.37912 | -83.02763 | 35088 ft | 481 kts | 44° |
| 2026-05-05 18:34 | 34.41856 | -82.96222 | 35082 ft | 481 kts | 44° |
| 2026-05-05 18:34 | 34.45797 | -82.89672 | 35099 ft | 481 kts | 44° |
| 2026-05-05 18:35 | 34.49735 | -82.83124 | 35102 ft | 481 kts | 44° |
| 2026-05-05 18:35 | 34.53671 | -82.76568 | 35103 ft | 480 kts | 44° |
| 2026-05-05 18:36 | 34.57581 | -82.70032 | 35080 ft | 478 kts | 44° |
| 2026-05-05 18:36 | 34.61489 | -82.63497 | 35078 ft | 479 kts | 44° |
| 2026-05-05 18:37 | 34.65394 | -82.56939 | 35094 ft | 479 kts | 44° |
| 2026-05-05 18:37 | 34.69305 | -82.50388 | 35058 ft | 478 kts | 44° |
| 2026-05-05 18:38 | 34.73206 | -82.43826 | 35100 ft | 479 kts | 44° |
| 2026-05-05 18:38 | 34.77105 | -82.37250 | 35137 ft | 480 kts | 44° |
| 2026-05-05 18:39 | 34.81005 | -82.30661 | 35135 ft | 480 kts | 44° |
| 2026-05-05 18:39 | 34.84878 | -82.24105 | 35125 ft | 479 kts | 44° |
| 2026-05-05 18:40 | 34.88768 | -82.17515 | 35122 ft | 479 kts | 44° |
| 2026-05-05 18:40 | 34.92687 | -82.10870 | 35121 ft | 479 kts | 44° |
| 2026-05-05 18:41 | 34.96542 | -82.04303 | 35111 ft | 479 kts | 44° |
| 2026-05-05 18:41 | 35.00424 | -81.97687 | 35132 ft | 479 kts | 44° |
| 2026-05-05 18:42 | 35.04294 | -81.91049 | 35116 ft | 481 kts | 45° |
| 2026-05-05 18:42 | 35.08009 | -81.84213 | 35099 ft | 484 kts | 47° |
| 2026-05-05 18:43 | 35.11614 | -81.77245 | 35089 ft | 485 kts | 47° |
| 2026-05-05 18:43 | 35.15234 | -81.70300 | 35081 ft | 484 kts | 47° |
| 2026-05-05 18:44 | 35.18894 | -81.63396 | 35110 ft | 483 kts | 46° |
| 2026-05-05 18:44 | 35.22531 | -81.56553 | 35095 ft | 481 kts | 47° |
| 2026-05-05 18:45 | 35.26146 | -81.49710 | 35057 ft | 479 kts | 47° |
| 2026-05-05 18:45 | 35.29785 | -81.42815 | 35068 ft | 479 kts | 47° |
| 2026-05-05 18:46 | 35.33376 | -81.35992 | 35078 ft | 480 kts | 47° |
| 2026-05-05 18:46 | 35.36983 | -81.29104 | 35090 ft | 481 kts | 47° |
| 2026-05-05 18:47 | 35.40588 | -81.22201 | 35101 ft | 480 kts | 47° |
| 2026-05-05 18:47 | 35.44191 | -81.15321 | 35099 ft | 479 kts | 47° |
| 2026-05-05 18:48 | 35.47771 | -81.08444 | 35078 ft | 478 kts | 47° |
| 2026-05-05 18:48 | 35.51343 | -81.01566 | 35084 ft | 478 kts | 47° |
| 2026-05-05 18:49 | 35.54925 | -80.94677 | 35081 ft | 479 kts | 47° |
| 2026-05-05 18:49 | 35.58507 | -80.87785 | 35100 ft | 478 kts | 47° |
| 2026-05-05 18:50 | 35.62076 | -80.80892 | 35096 ft | 477 kts | 47° |
| 2026-05-05 18:50 | 35.65624 | -80.74006 | 35098 ft | 476 kts | 47° |
| 2026-05-05 18:51 | 35.69172 | -80.67124 | 35091 ft | 476 kts | 47° |
| 2026-05-05 18:51 | 35.72707 | -80.60238 | 35100 ft | 476 kts | 47° |
| 2026-05-05 18:52 | 35.76240 | -80.53347 | 35110 ft | 476 kts | 47° |
| 2026-05-05 18:52 | 35.79765 | -80.46465 | 35108 ft | 475 kts | 47° |
| 2026-05-05 18:53 | 35.83287 | -80.39583 | 35109 ft | 474 kts | 47° |
| 2026-05-05 18:53 | 35.86793 | -80.32700 | 35086 ft | 474 kts | 47° |
| 2026-05-05 18:54 | 35.90298 | -80.25824 | 35085 ft | 474 kts | 47° |
| 2026-05-05 18:54 | 35.93797 | -80.18937 | 35080 ft | 474 kts | 47° |
| 2026-05-05 18:55 | 35.97300 | -80.12053 | 35078 ft | 473 kts | 47° |
| 2026-05-05 18:55 | 36.00844 | -80.05286 | 35096 ft | 471 kts | 47° |
| 2026-05-05 18:56 | 36.04452 | -79.98466 | 35096 ft | 471 kts | 47° |
| 2026-05-05 18:56 | 36.08001 | -79.91721 | 35120 ft | 471 kts | 47° |
| 2026-05-05 18:57 | 36.11624 | -79.84975 | 35103 ft | 470 kts | 45° |
| 2026-05-05 18:57 | 36.15397 | -79.78398 | 35093 ft | 468 kts | 44° |
| 2026-05-05 18:58 | 36.18586 | -79.72919 | 35082 ft | 468 kts | 44° |
| 2026-05-05 18:58 | 36.22362 | -79.66336 | 35072 ft | 469 kts | 45° |
| 2026-05-05 18:59 | 36.26073 | -79.59742 | 35070 ft | 470 kts | 45° |
| 2026-05-05 18:59 | 36.29807 | -79.53102 | 35081 ft | 470 kts | 45° |
| 2026-05-05 19:00 | 36.33557 | -79.46451 | 35050 ft | 471 kts | 45° |
| 2026-05-05 19:00 | 36.37309 | -79.39783 | 35059 ft | 472 kts | 45° |
| 2026-05-05 19:01 | 36.41058 | -79.33096 | 35057 ft | 472 kts | 45° |
| 2026-05-05 19:01 | 36.44811 | -79.26409 | 35066 ft | 472 kts | 45° |
| 2026-05-05 19:02 | 36.48558 | -79.19713 | 35071 ft | 472 kts | 46° |
| 2026-05-05 19:02 | 36.52309 | -79.12995 | 35077 ft | 473 kts | 46° |
| 2026-05-05 19:03 | 36.56058 | -79.06267 | 35066 ft | 474 kts | 46° |
| 2026-05-05 19:03 | 36.59797 | -78.99522 | 35057 ft | 473 kts | 46° |
| 2026-05-05 19:04 | 36.63518 | -78.92759 | 35055 ft | 473 kts | 46° |
| 2026-05-05 19:04 | 36.67228 | -78.85990 | 35049 ft | 472 kts | 46° |
| 2026-05-05 19:05 | 36.70917 | -78.79205 | 35075 ft | 476 kts | 50° |
| 2026-05-05 19:05 | 36.74075 | -78.71861 | 35058 ft | 482 kts | 53° |
| 2026-05-05 19:06 | 36.77181 | -78.64450 | 35059 ft | 482 kts | 53° |
| 2026-05-05 19:06 | 36.80274 | -78.57042 | 35059 ft | 481 kts | 53° |
| 2026-05-05 19:07 | 36.83361 | -78.49640 | 35059 ft | 481 kts | 53° |
| 2026-05-05 19:07 | 36.86446 | -78.42243 | 35057 ft | 480 kts | 53° |
| 2026-05-05 19:08 | 36.89528 | -78.34846 | 35053 ft | 480 kts | 53° |
| 2026-05-05 19:08 | 36.92581 | -78.27484 | 35049 ft | 480 kts | 53° |
| 2026-05-05 19:09 | 36.95661 | -78.20052 | 35033 ft | 481 kts | 53° |
| 2026-05-05 19:09 | 36.98739 | -78.12603 | 35035 ft | 482 kts | 53° |
| 2026-05-05 19:10 | 37.01810 | -78.05146 | 35031 ft | 482 kts | 54° |
| 2026-05-05 19:10 | 37.04862 | -77.97714 | 35034 ft | 482 kts | 54° |
| 2026-05-05 19:11 | 37.07939 | -77.90200 | 35043 ft | 481 kts | 54° |
| 2026-05-05 19:11 | 37.10970 | -77.82797 | 35044 ft | 479 kts | 54° |
| 2026-05-05 19:12 | 37.14007 | -77.75364 | 35044 ft | 479 kts | 54° |
| 2026-05-05 19:12 | 37.17042 | -77.67911 | 35044 ft | 479 kts | 54° |
| 2026-05-05 19:13 | 37.20067 | -77.60455 | 35041 ft | 479 kts | 54° |
| 2026-05-05 19:13 | 37.23087 | -77.53012 | 35053 ft | 478 kts | 54° |
| 2026-05-05 19:14 | 37.26091 | -77.45588 | 35055 ft | 476 kts | 54° |
| 2026-05-05 19:14 | 37.29079 | -77.38183 | 35054 ft | 475 kts | 55° |
| 2026-05-05 19:15 | 37.32066 | -77.30775 | 35036 ft | 475 kts | 55° |
| 2026-05-05 19:15 | 37.35030 | -77.23409 | 35029 ft | 475 kts | 55° |
| 2026-05-05 19:16 | 37.37994 | -77.15987 | 35039 ft | 474 kts | 56° |
| 2026-05-05 19:16 | 37.40948 | -77.08586 | 35037 ft | 473 kts | 56° |
| 2026-05-05 19:17 | 37.43934 | -77.01228 | 35035 ft | 468 kts | 51° |
| 2026-05-05 19:17 | 37.45774 | -76.97908 | 35036 ft | 457 kts | 41° |
| 2026-05-05 19:17 | 37.47966 | -76.95081 | 35045 ft | 446 kts | 32° |
| 2026-05-05 19:18 | 37.53056 | -76.90932 | 35036 ft | 432 kts | 20° |
| 2026-05-05 19:18 | 37.58376 | -76.87400 | 35036 ft | 432 kts | 20° |
| 2026-05-05 19:19 | 37.63704 | -76.83855 | 35043 ft | 433 kts | 21° |
| 2026-05-05 19:19 | 37.69047 | -76.80285 | 35027 ft | 434 kts | 21° |
| 2026-05-05 19:20 | 37.74390 | -76.76712 | 35018 ft | 435 kts | 21° |
| 2026-05-05 19:20 | 37.79741 | -76.73137 | 35013 ft | 435 kts | 21° |
| 2026-05-05 19:21 | 37.85092 | -76.69546 | 35009 ft | 435 kts | 21° |
| 2026-05-05 19:21 | 37.90456 | -76.65997 | 35010 ft | 435 kts | 20° |
| 2026-05-05 19:22 | 37.95836 | -76.62602 | 35005 ft | 435 kts | 19° |
| 2026-05-05 19:22 | 38.01302 | -76.59192 | 34999 ft | 435 kts | 19° |
| 2026-05-05 19:23 | 38.06724 | -76.55770 | 34998 ft | 435 kts | 20° |
| 2026-05-05 19:23 | 38.12138 | -76.52313 | 35013 ft | 436 kts | 20° |
| 2026-05-05 19:24 | 38.17558 | -76.48847 | 35014 ft | 436 kts | 20° |
| 2026-05-05 19:24 | 38.22949 | -76.45399 | 35016 ft | 436 kts | 20° |
| 2026-05-05 19:25 | 38.28358 | -76.41912 | 35011 ft | 438 kts | 24° |
| 2026-05-05 19:25 | 38.33373 | -76.37357 | 35007 ft | 445 kts | 31° |
| 2026-05-05 19:26 | 38.38292 | -76.32551 | 34999 ft | 446 kts | 31° |
| 2026-05-05 19:26 | 38.43221 | -76.27729 | 34996 ft | 446 kts | 31° |
| 2026-05-05 19:27 | 38.48149 | -76.22898 | 34984 ft | 446 kts | 31° |
| 2026-05-05 19:27 | 38.53086 | -76.18064 | 35004 ft | 447 kts | 31° |
| 2026-05-05 19:28 | 38.58015 | -76.13211 | 34994 ft | 447 kts | 31° |
| 2026-05-05 19:28 | 38.62941 | -76.08358 | 34726 ft | 446 kts | 31° |
| 2026-05-05 19:29 | 38.65414 | -76.05967 | 34482 ft | 445 kts | 30° |
| 2026-05-05 19:29 | 38.67907 | -76.03628 | 34236 ft | 443 kts | 30° |
| 2026-05-05 19:29 | 38.70411 | -76.01319 | 33848 ft | 442 kts | 29° |
| 2026-05-05 19:29 | 38.72906 | -75.99026 | 33151 ft | 442 kts | 30° |
| 2026-05-05 19:30 | 38.75415 | -75.96709 | 32328 ft | 446 kts | 30° |
| 2026-05-05 19:30 | 38.77956 | -75.94350 | 31405 ft | 454 kts | 31° |
| 2026-05-05 19:30 | 38.80515 | -75.91959 | 30630 ft | 457 kts | 31° |
| 2026-05-05 19:30 | 38.83091 | -75.89542 | 29842 ft | 460 kts | 32° |
| 2026-05-05 19:31 | 38.85667 | -75.87116 | 29151 ft | 459 kts | 32° |
| 2026-05-05 19:31 | 38.88243 | -75.84690 | 28342 ft | 459 kts | 32° |
| 2026-05-05 19:31 | 38.90812 | -75.82265 | 27719 ft | 457 kts | 32° |
| 2026-05-05 19:31 | 38.93329 | -75.79886 | 27136 ft | 453 kts | 32° |
| 2026-05-05 19:32 | 38.95860 | -75.77497 | 26702 ft | 449 kts | 32° |
| 2026-05-05 19:32 | 38.98374 | -75.75128 | 26564 ft | 449 kts | 32° |
| 2026-05-05 19:32 | 39.00886 | -75.72757 | 26337 ft | 448 kts | 32° |
| 2026-05-05 19:32 | 39.03398 | -75.70383 | 26112 ft | 446 kts | 32° |
| 2026-05-05 19:33 | 39.05895 | -75.68018 | 25884 ft | 445 kts | 32° |
| 2026-05-05 19:33 | 39.08391 | -75.65656 | 25661 ft | 445 kts | 32° |
| 2026-05-05 19:33 | 39.10878 | -75.63298 | 25435 ft | 443 kts | 32° |
| 2026-05-05 19:33 | 39.13357 | -75.60945 | 25228 ft | 442 kts | 32° |
| 2026-05-05 19:34 | 39.15835 | -75.58594 | 24993 ft | 443 kts | 32° |
| 2026-05-05 19:34 | 39.18315 | -75.56237 | 24769 ft | 443 kts | 32° |
| 2026-05-05 19:34 | 39.20793 | -75.53878 | 24550 ft | 442 kts | 33° |
| 2026-05-05 19:35 | 39.25750 | -75.49211 | 24111 ft | 440 kts | 31° |
| 2026-05-05 19:35 | 39.28263 | -75.46959 | 23890 ft | 439 kts | 31° |
| 2026-05-05 19:35 | 39.30783 | -75.44749 | 23672 ft | 438 kts | 30° |
| 2026-05-05 19:35 | 39.33306 | -75.42553 | 23443 ft | 437 kts | 30° |
| 2026-05-05 19:36 | 39.35820 | -75.40358 | 23209 ft | 435 kts | 30° |
| 2026-05-05 19:36 | 39.38323 | -75.38156 | 22997 ft | 434 kts | 31° |
| 2026-05-05 19:36 | 39.40813 | -75.35955 | 22773 ft | 433 kts | 31° |
| 2026-05-05 19:36 | 39.43295 | -75.33746 | 22567 ft | 432 kts | 31° |
| 2026-05-05 19:37 | 39.45761 | -75.31537 | 22347 ft | 431 kts | 31° |
| 2026-05-05 19:37 | 39.48220 | -75.29329 | 22132 ft | 430 kts | 31° |
| 2026-05-05 19:37 | 39.50684 | -75.27119 | 21917 ft | 429 kts | 31° |
| 2026-05-05 19:37 | 39.53124 | -75.24907 | 21425 ft | 429 kts | 32° |
| 2026-05-05 19:38 | 39.55543 | -75.22662 | 20954 ft | 426 kts | 32° |
| 2026-05-05 19:38 | 39.57130 | -75.21170 | 20652 ft | 425 kts | 32° |
| 2026-05-05 19:38 | 39.59511 | -75.18917 | 20182 ft | 423 kts | 33° |
| 2026-05-05 19:38 | 39.61886 | -75.16666 | 19727 ft | 421 kts | 33° |
| 2026-05-05 19:39 | 39.64242 | -75.14433 | 19270 ft | 419 kts | 33° |
| 2026-05-05 19:39 | 39.66589 | -75.12218 | 18816 ft | 416 kts | 32° |
| 2026-05-05 19:39 | 39.68940 | -75.10038 | 18371 ft | 414 kts | 31° |
| 2026-05-05 19:39 | 39.72079 | -75.07281 | 17831 ft | 410 kts | 30° |
| 2026-05-05 19:40 | 39.73688 | -75.05912 | 17510 ft | 409 kts | 30° |
| 2026-05-05 19:40 | 39.76066 | -75.03913 | 17082 ft | 406 kts | 29° |
| 2026-05-05 19:40 | 39.78433 | -75.01927 | 16643 ft | 404 kts | 29° |
| 2026-05-05 19:40 | 39.80787 | -74.99931 | 16204 ft | 403 kts | 30° |
| 2026-05-05 19:41 | 39.83129 | -74.97923 | 15761 ft | 402 kts | 30° |
| 2026-05-05 19:41 | 39.85456 | -74.95913 | 15323 ft | 401 kts | 30° |
| 2026-05-05 19:41 | 39.87742 | -74.93881 | 15046 ft | 392 kts | 31° |
| 2026-05-05 19:41 | 39.89940 | -74.91874 | 14920 ft | 379 kts | 31° |
| 2026-05-05 19:42 | 39.92024 | -74.89850 | 14821 ft | 369 kts | 37° |
| 2026-05-05 19:42 | 39.93845 | -74.87473 | 14275 ft | 374 kts | 44° |
| 2026-05-05 19:42 | 39.95597 | -74.84946 | 13735 ft | 376 kts | 44° |
| 2026-05-05 19:42 | 39.97354 | -74.82418 | 13219 ft | 376 kts | 44° |
| 2026-05-05 19:43 | 39.99112 | -74.79897 | 12743 ft | 375 kts | 44° |
| 2026-05-05 19:43 | 40.00865 | -74.77385 | 12262 ft | 373 kts | 44° |
| 2026-05-05 19:43 | 40.02609 | -74.74882 | 11786 ft | 372 kts | 44° |
| 2026-05-05 19:43 | 40.04350 | -74.72383 | 11270 ft | 372 kts | 44° |
| 2026-05-05 19:44 | 40.06096 | -74.69875 | 10760 ft | 373 kts | 44° |
| 2026-05-05 19:44 | 40.07833 | -74.67377 | 10360 ft | 371 kts | 44° |
| 2026-05-05 19:44 | 40.09565 | -74.64886 | 10043 ft | 369 kts | 45° |
| 2026-05-05 19:44 | 40.11293 | -74.62409 | 9979 ft | 369 kts | 45° |
| 2026-05-05 19:45 | 40.13024 | -74.59925 | 9988 ft | 370 kts | 44° |
| 2026-05-05 19:45 | 40.14756 | -74.57434 | 9985 ft | 371 kts | 45° |
| 2026-05-05 19:45 | 40.16486 | -74.54934 | 9985 ft | 371 kts | 45° |
| 2026-05-05 19:45 | 40.18218 | -74.52430 | 9984 ft | 371 kts | 45° |
| 2026-05-05 19:46 | 40.19948 | -74.49928 | 9989 ft | 371 kts | 44° |
| 2026-05-05 19:46 | 40.21723 | -74.47482 | 9982 ft | 370 kts | 41° |
| 2026-05-05 19:46 | 40.23551 | -74.45134 | 9989 ft | 363 kts | 40° |
| 2026-05-05 19:46 | 40.25341 | -74.42912 | 9992 ft | 347 kts | 39° |
| 2026-05-05 19:47 | 40.27069 | -74.40788 | 9892 ft | 336 kts | 39° |
| 2026-05-05 19:47 | 40.28759 | -74.38706 | 9613 ft | 332 kts | 39° |
| 2026-05-05 19:47 | 40.30429 | -74.36635 | 9295 ft | 329 kts | 39° |
| 2026-05-05 19:47 | 40.32079 | -74.34565 | 8926 ft | 328 kts | 40° |
| 2026-05-05 19:48 | 40.33690 | -74.32524 | 8584 ft | 326 kts | 41° |
| 2026-05-05 19:48 | 40.35311 | -74.30464 | 8257 ft | 323 kts | 41° |
| 2026-05-05 19:48 | 40.36923 | -74.28411 | 7910 ft | 322 kts | 42° |
| 2026-05-05 19:48 | 40.38524 | -74.26372 | 7607 ft | 320 kts | 43° |
| 2026-05-05 19:49 | 40.39869 | -74.24077 | 7259 ft | 317 kts | 63° |
| 2026-05-05 19:49 | 40.40815 | -74.21472 | 7005 ft | 314 kts | 67° |
| 2026-05-05 19:49 | 40.41701 | -74.18857 | 6976 ft | 314 kts | 67° |
| 2026-05-05 19:49 | 40.42582 | -74.16224 | 6976 ft | 315 kts | 68° |
| 2026-05-05 19:50 | 40.43462 | -74.13597 | 6972 ft | 311 kts | 68° |
| 2026-05-05 19:50 | 40.44329 | -74.11027 | 6977 ft | 312 kts | 68° |
| 2026-05-05 19:50 | 40.45208 | -74.08416 | 6817 ft | 313 kts | 68° |
| 2026-05-05 19:50 | 40.46092 | -74.05803 | 6496 ft | 312 kts | 68° |
| 2026-05-05 19:51 | 40.46984 | -74.03221 | 6197 ft | 309 kts | 66° |
| 2026-05-05 19:51 | 40.48199 | -74.00917 | 5850 ft | 307 kts | 41° |
| 2026-05-05 19:51 | 40.49996 | -73.99504 | 5521 ft | 298 kts | 12° |
| 2026-05-05 19:51 | 40.51992 | -73.99249 | 5177 ft | 284 kts | 345° |
| 2026-05-05 19:52 | 40.53761 | -74.00144 | 4997 ft | 269 kts | 321° |
| 2026-05-05 19:52 | 40.55344 | -74.01560 | 5005 ft | 275 kts | 318° |
| 2026-05-05 19:52 | 40.56897 | -74.03041 | 5000 ft | 275 kts | 317° |
| 2026-05-05 19:52 | 40.58447 | -74.04526 | 5003 ft | 276 kts | 317° |
| 2026-05-05 19:53 | 40.60035 | -74.05959 | 4997 ft | 280 kts | 328° |
| 2026-05-05 19:53 | 40.61951 | -74.06607 | 4987 ft | 292 kts | 354° |
| 2026-05-05 19:53 | 40.63994 | -74.06468 | 4874 ft | 295 kts | 3° |
| 2026-05-05 19:53 | 40.66025 | -74.06041 | 4538 ft | 296 kts | 8° |
| 2026-05-05 19:54 | 40.68034 | -74.05470 | 4218 ft | 295 kts | 11° |
| 2026-05-05 19:54 | 40.70005 | -74.04765 | 4008 ft | 293 kts | 14° |
| 2026-05-05 19:54 | 40.71941 | -74.03885 | 4005 ft | 295 kts | 18° |
| 2026-05-05 19:54 | 40.73855 | -74.02890 | 4007 ft | 297 kts | 21° |
| 2026-05-05 19:55 | 40.75715 | -74.01700 | 4007 ft | 296 kts | 26° |
| 2026-05-05 19:55 | 40.77525 | -74.00399 | 3986 ft | 297 kts | 27° |
| 2026-05-05 19:55 | 40.79341 | -73.99068 | 3957 ft | 301 kts | 27° |
| 2026-05-05 19:55 | 40.81163 | -73.97703 | 3959 ft | 301 kts | 27° |
| 2026-05-05 19:56 | 40.82983 | -73.96338 | 3964 ft | 301 kts | 27° |
| 2026-05-05 19:56 | 40.84799 | -73.94985 | 3959 ft | 300 kts | 27° |
| 2026-05-05 19:56 | 40.86619 | -73.93624 | 3976 ft | 299 kts | 27° |
| 2026-05-05 19:56 | 40.88398 | -73.92317 | 3932 ft | 285 kts | 27° |
| 2026-05-05 19:57 | 40.90087 | -73.91084 | 3948 ft | 268 kts | 27° |
| 2026-05-05 19:57 | 40.91148 | -73.90305 | 3945 ft | 259 kts | 27° |
| 2026-05-05 19:57 | 40.93207 | -73.88787 | 3678 ft | 254 kts | 27° |
| 2026-05-05 19:57 | 40.94755 | -73.87667 | 3331 ft | 254 kts | 27° |
| 2026-05-05 19:58 | 40.96296 | -73.86553 | 3120 ft | 250 kts | 27° |
| 2026-05-05 19:58 | 40.97829 | -73.85437 | 2985 ft | 252 kts | 32° |
| 2026-05-05 19:58 | 40.99016 | -73.83785 | 2978 ft | 248 kts | 66° |
| 2026-05-05 19:58 | 40.99393 | -73.81617 | 2988 ft | 239 kts | 100° |
| 2026-05-05 19:59 | 40.99026 | -73.79515 | 2999 ft | 233 kts | 116° |
| 2026-05-05 19:59 | 40.98485 | -73.77502 | 2989 ft | 230 kts | 121° |
| 2026-05-05 19:59 | 40.97541 | -73.75927 | 2986 ft | 213 kts | 151° |
| 2026-05-05 19:59 | 40.96252 | -73.75027 | 2990 ft | 207 kts | 168° |
| 2026-05-05 20:00 | 40.94867 | -73.74704 | 2986 ft | 199 kts | 184° |
| 2026-05-05 20:00 | 40.93517 | -73.74935 | 2988 ft | 193 kts | 199° |
| 2026-05-05 20:00 | 40.92303 | -73.75656 | 2986 ft | 191 kts | 212° |
| 2026-05-05 20:00 | 40.91204 | -73.76570 | 2865 ft | 181 kts | 212° |
| 2026-05-05 20:01 | 40.90168 | -73.77431 | 2658 ft | 172 kts | 213° |
| 2026-05-05 20:01 | 40.89164 | -73.78266 | 2445 ft | 169 kts | 212° |
| 2026-05-05 20:01 | 40.88185 | -73.79079 | 2228 ft | 164 kts | 211° |
| 2026-05-05 20:01 | 40.87217 | -73.79882 | 1983 ft | 163 kts | 212° |
| 2026-05-05 20:02 | 40.86275 | -73.80664 | 1768 ft | 155 kts | 211° |
| 2026-05-05 20:02 | 40.85382 | -73.81404 | 1586 ft | 150 kts | 209° |
| 2026-05-05 20:02 | 40.84510 | -73.82127 | 1382 ft | 149 kts | 211° |
| 2026-05-05 20:02 | 40.83635 | -73.82852 | 1154 ft | 146 kts | 210° |
| 2026-05-05 20:03 | 40.82775 | -73.83563 | 965 ft | 144 kts | 211° |
| 2026-05-05 20:03 | 40.81922 | -73.84269 | 789 ft | 149 kts | 210° |
| 2026-05-05 20:03 | 40.81056 | -73.84989 | 623 ft | 148 kts | 210° |
| 2026-05-05 20:03 | 40.80210 | -73.85696 | 405 ft | 140 kts | 210° |
| 2026-05-05 20:04 | 40.79349 | -73.86400 | 241 ft | 148 kts | 213° |
| 2026-05-05 20:04 | 40.78481 | -73.87123 | 42 ft | 146 kts | 213° |
| 2026-05-05 20:04 | 40.77728 | -73.87744 | 25 ft | 97 kts | 212° |
| 2026-05-05 20:04 | 40.77357 | -73.88052 | 22 ft | 45 kts | 212° |
| 2026-05-05 20:05 | 40.77145 | -73.88226 | 24 ft | 19 kts | 212° |
| 2026-05-05 20:05 | 40.77059 | -73.88214 | 24 ft | 13 kts | 127° |
| 2026-05-05 20:05 | 40.77070 | -73.88137 | 23 ft | 10 kts | 33° |
| 2026-05-05 20:05 | 40.77131 | -73.88088 | 22 ft | 11 kts | 32° |
| 2026-05-05 20:06 | 40.77199 | -73.88031 | 21 ft | 11 kts | 32° |
| 2026-05-05 20:06 | 40.77269 | -73.87974 | 22 ft | 12 kts | 32° |
| 2026-05-05 20:06 | 40.77344 | -73.87911 | 21 ft | 13 kts | 32° |
| 2026-05-05 20:06 | 40.77424 | -73.87846 | 21 ft | 13 kts | 32° |
| 2026-05-05 20:07 | 40.77485 | -73.87795 | 22 ft | 9 kts | 32° |
| 2026-05-05 20:07 | 40.77532 | -73.87756 | 21 ft | 6 kts | 32° |
| 2026-05-05 20:07 | 40.77548 | -73.87717 | 21 ft | 6 kts | 102° |
| 2026-05-05 20:07 | 40.77525 | -73.87667 | 20 ft | 6 kts | 122° |
| 2026-05-05 20:08 | 40.77505 | -73.87624 | 20 ft | 4 kts | 121° |
| 2026-05-05 20:08 | 40.77508 | -73.87590 | 20 ft | 4 kts | 63° |
| 2026-05-05 20:08 | 40.77513 | -73.87549 | 20 ft | 5 kts | 105° |
| 2026-05-05 20:08 | 40.77495 | -73.87510 | 20 ft | 5 kts | 122° |
| 2026-05-05 20:09 | 40.77480 | -73.87466 | 20 ft | 6 kts | 105° |
| 2026-05-05 20:09 | 40.77473 | -73.87417 | 20 ft | 4 kts | 99° |
| 2026-05-05 20:09 | 40.77465 | -73.87376 | 20 ft | 3 kts | 114° |
| 2026-05-05 20:09 | 40.77448 | -73.87346 | 20 ft | 5 kts | 127° |
| 2026-05-05 20:10 | 40.77451 | -73.87309 | 20 ft | 5 kts | 50° |
| 2026-05-05 20:10 | 40.77471 | -73.87288 | 20 ft | 3 kts | 38° |
| 2026-05-05 20:10 | 40.77481 | -73.87277 | 21 ft | 1 kts | 38° |
| 2026-05-05 20:10 | 40.77486 | -73.87272 | 20 ft | 0 kts | 38° |